createdAt,value
2019-05-15T00:01:08.767Z,72.18
2019-05-15T00:03:58.321Z,72.79
2019-05-15T00:06:44.140Z,73.91
2019-05-15T00:09:30.252Z,74.34
2019-05-15T00:12:18.758Z,74.91
2019-05-15T00:15:04.677Z,74.76
2019-05-15T00:17:50.790Z,74.90
2019-05-15T00:20:39.464Z,74.65
2019-05-15T00:23:25.070Z,74.55
2019-05-15T00:26:11.328Z,74.69
2019-05-15T00:29:09.545Z,75.16
2019-05-15T00:31:45.277Z,75.20
2019-05-15T00:34:31.225Z,75.17
2019-05-15T00:37:18.233Z,75.42
2019-05-15T00:40:05.235Z,75.56
2019-05-15T00:42:51.275Z,75.82
2019-05-15T00:45:38.548Z,75.49
2019-05-15T00:48:25.370Z,75.38
2019-05-15T00:51:13.162Z,75.53
2019-05-15T00:53:59.510Z,76.18
2019-05-15T00:56:45.781Z,76.54
2019-05-15T00:59:31.886Z,76.95
2019-05-15T01:02:18.015Z,77.04
2019-05-15T01:05:04.463Z,77.29
2019-05-15T01:07:50.349Z,77.05
2019-05-15T01:10:38.623Z,77.37
2019-05-15T01:13:24.814Z,77.29
2019-05-15T01:16:10.922Z,77.11
2019-05-15T01:18:58.575Z,77.19
2019-05-15T01:21:44.758Z,77.64
2019-05-15T01:24:30.755Z,77.79
2019-05-15T01:27:18.395Z,77.87
2019-05-15T01:30:05.232Z,77.67
2019-05-15T01:32:51.432Z,77.56
2019-05-15T01:35:38.401Z,77.93
2019-05-15T01:38:24.815Z,78.22
2019-05-15T01:41:10.908Z,77.87
2019-05-15T01:43:58.107Z,78.11
2019-05-15T01:46:44.360Z,78.60
2019-05-15T01:49:30.365Z,78.58
2019-05-15T01:52:18.675Z,78.68
2019-05-15T01:55:04.802Z,79.01
2019-05-15T01:57:50.776Z,78.97
2019-05-15T02:00:39.235Z,78.88
2019-05-15T02:03:24.680Z,78.84
2019-05-15T02:06:10.755Z,78.92
2019-05-15T02:08:58.699Z,79.18
2019-05-15T02:11:44.735Z,79.07
2019-05-15T02:14:30.720Z,79.22
2019-05-15T02:17:18.790Z,79.29
2019-05-15T02:20:05.553Z,79.41
2019-05-15T02:22:51.686Z,79.47
2019-05-15T02:25:38.818Z,79.68
2019-05-15T02:28:25.031Z,79.58
2019-05-15T02:31:11.235Z,79.55
2019-05-15T02:33:59.058Z,79.70
2019-05-15T02:36:45.247Z,79.51
2019-05-15T02:39:31.269Z,79.45
2019-05-15T02:42:19.169Z,79.76
2019-05-15T02:45:05.995Z,80.21
2019-05-15T02:47:52.392Z,80.43
2019-05-15T02:50:39.066Z,80.50
2019-05-15T02:53:25.635Z,80.42
2019-05-15T02:56:11.743Z,80.84
2019-05-15T02:58:59.994Z,80.94
2019-05-15T03:01:49.089Z,80.91
2019-05-15T03:04:34.365Z,80.68
2019-05-15T03:07:20.375Z,80.73
2019-05-15T03:10:09.179Z,80.73
2019-05-15T03:12:54.767Z,80.79
2019-05-15T03:15:40.980Z,80.83
2019-05-15T03:18:28.922Z,81.17
2019-05-15T03:21:18.617Z,80.80
2019-05-15T03:24:03.586Z,81.16
2019-05-15T03:26:49.886Z,80.97
2019-05-15T03:29:36.246Z,81.38
2019-05-15T03:32:32.217Z,81.67
2019-05-15T03:35:14.131Z,81.68
2019-05-15T03:37:59.884Z,81.33
2019-05-15T03:40:46.258Z,80.77
2019-05-15T03:43:32.501Z,80.56
2019-05-15T03:46:19.947Z,80.24
2019-05-15T03:49:08.658Z,78.92
2019-05-15T03:51:54.371Z,78.29
2019-05-15T03:54:40.453Z,77.12
2019-05-15T03:57:30.206Z,74.32
2019-05-15T04:00:15.055Z,72.48
2019-05-15T04:03:00.968Z,70.26
2019-05-15T04:05:49.454Z,71.23
2019-05-15T04:08:38.900Z,69.87
2019-05-15T04:11:23.521Z,67.71
2019-05-15T04:14:10.314Z,64.97
2019-05-15T04:16:59.406Z,61.12
2019-05-15T04:19:45.131Z,63.78
2019-05-15T04:22:31.396Z,61.91
2019-05-15T04:25:19.135Z,60.61
2019-05-15T04:28:05.682Z,58.18
2019-05-15T04:30:51.840Z,56.44
2019-05-15T04:33:39.959Z,57.50
2019-05-15T04:36:29.673Z,57.58
2019-05-15T04:39:15.325Z,58.34
2019-05-15T04:42:01.532Z,56.96
2019-05-15T04:44:49.546Z,56.07
2019-05-15T04:47:39.247Z,55.79
2019-05-15T04:50:24.037Z,55.39
2019-05-15T04:53:11.166Z,54.53
2019-05-15T04:55:59.747Z,52.92
2019-05-15T04:58:45.614Z,52.48
2019-05-15T05:01:31.701Z,50.30
2019-05-15T05:04:18.830Z,49.71
2019-05-15T05:07:04.917Z,54.01
2019-05-15T05:09:51.089Z,52.93
2019-05-15T05:12:41.326Z,51.25
2019-05-15T05:15:25.271Z,47.24
2019-05-15T05:18:11.401Z,46.42
2019-05-15T05:20:57.807Z,45.32
2019-05-15T05:23:44.079Z,45.71
2019-05-15T05:26:30.222Z,43.85
2019-05-15T05:29:17.787Z,45.52
2019-05-15T05:32:04.073Z,44.31
2019-05-15T05:34:50.286Z,43.90
2019-05-15T05:37:38.641Z,42.02
2019-05-15T05:40:24.496Z,42.68
2019-05-15T05:43:10.687Z,43.62
2019-05-15T05:45:58.253Z,40.80
2019-05-15T05:48:44.521Z,41.61
2019-05-15T05:51:30.696Z,43.91
2019-05-15T05:54:18.211Z,40.59
2019-05-15T05:57:04.383Z,41.06
2019-05-15T05:59:50.706Z,43.23
2019-05-15T06:02:46.966Z,44.25
2019-05-15T06:05:24.894Z,44.02
2019-05-15T06:08:11.021Z,41.35
2019-05-15T06:10:58.478Z,41.26
2019-05-15T06:13:44.721Z,44.34
2019-05-15T06:16:30.905Z,41.44
2019-05-15T06:19:18.272Z,42.45
2019-05-15T06:22:04.664Z,40.98
2019-05-15T06:24:50.975Z,40.40
2019-05-15T06:27:39.089Z,42.96
2019-05-15T06:30:30.279Z,43.25
2019-05-15T06:33:14.280Z,42.97
2019-05-15T06:36:00.656Z,42.84
2019-05-15T06:38:48.342Z,43.41
2019-05-15T06:41:34.834Z,41.86
2019-05-15T06:44:21.316Z,40.66
2019-05-15T06:47:08.172Z,39.99
2019-05-15T06:49:54.392Z,40.81
2019-05-15T06:52:40.885Z,40.15
2019-05-15T06:55:28.893Z,39.26
2019-05-15T06:58:15.125Z,39.79
2019-05-15T07:01:01.547Z,39.96
2019-05-15T07:03:48.448Z,40.40
2019-05-15T07:06:34.728Z,39.29
2019-05-15T07:09:20.908Z,40.72
2019-05-15T07:12:08.014Z,38.10
2019-05-15T07:14:54.671Z,36.81
2019-05-15T07:17:40.794Z,37.58
2019-05-15T07:20:28.533Z,39.54
2019-05-15T07:23:15.110Z,38.21
2019-05-15T07:26:01.747Z,36.91
2019-05-15T07:28:48.642Z,37.50
2019-05-15T07:31:35.307Z,37.11
2019-05-15T07:34:21.619Z,37.26
2019-05-15T07:37:09.698Z,36.76
2019-05-15T07:39:55.859Z,36.90
2019-05-15T07:42:42.420Z,37.86
2019-05-15T07:45:28.562Z,37.73
2019-05-15T07:48:14.740Z,36.72
2019-05-15T07:51:01.282Z,36.03
2019-05-15T07:53:48.941Z,36.86
2019-05-15T07:56:37.950Z,36.97
2019-05-15T07:59:23.900Z,36.26
2019-05-15T08:02:10.080Z,37.00
2019-05-15T08:04:57.645Z,35.75
2019-05-15T08:07:44.019Z,36.04
2019-05-15T08:10:30.463Z,36.02
2019-05-15T08:13:18.543Z,36.31
2019-05-15T08:16:05.179Z,36.42
2019-05-15T08:18:51.958Z,37.14
2019-05-15T08:21:38.611Z,36.71
2019-05-15T08:24:25.339Z,37.37
2019-05-15T08:27:11.759Z,37.29
2019-05-15T08:29:58.225Z,38.13
2019-05-15T08:32:44.484Z,37.86
2019-05-15T08:35:30.959Z,37.75
2019-05-15T08:38:18.422Z,38.12
2019-05-15T08:41:05.083Z,37.99
2019-05-15T08:43:51.339Z,37.42
2019-05-15T08:46:38.703Z,37.66
2019-05-15T08:49:25.070Z,37.86
2019-05-15T08:52:11.609Z,38.92
2019-05-15T08:54:59.097Z,37.99
2019-05-15T08:57:45.740Z,36.81
2019-05-15T09:00:32.237Z,37.57
2019-05-15T09:03:18.558Z,37.88
2019-05-15T09:06:05.238Z,37.61
2019-05-15T09:08:51.859Z,38.15
2019-05-15T09:11:39.112Z,38.46
2019-05-15T09:14:25.619Z,37.56
2019-05-15T09:17:12.046Z,37.93
2019-05-15T09:19:58.910Z,38.35
2019-05-15T09:22:45.463Z,37.97
2019-05-15T09:25:32.306Z,37.93
2019-05-15T09:28:19.175Z,37.50
2019-05-15T09:31:08.202Z,37.19
2019-05-15T09:33:53.799Z,37.41
2019-05-15T09:36:44.813Z,37.55
2019-05-15T09:39:28.675Z,37.78
2019-05-15T09:42:15.179Z,37.90
2019-05-15T09:45:01.458Z,37.65
2019-05-15T09:47:48.549Z,38.41
2019-05-15T09:50:35.183Z,38.26
2019-05-15T09:53:22.280Z,38.58
2019-05-15T09:56:08.439Z,38.09
2019-05-15T09:58:54.999Z,38.68
2019-05-15T10:01:41.261Z,37.72
2019-05-15T10:04:28.651Z,38.45
2019-05-15T10:07:15.339Z,37.55
2019-05-15T10:10:02.159Z,38.52
2019-05-15T10:12:49.521Z,37.71
2019-05-15T10:15:38.801Z,38.48
2019-05-15T10:18:24.789Z,38.15
2019-05-15T10:21:10.950Z,38.75
2019-05-15T10:23:59.017Z,37.94
2019-05-15T10:26:45.682Z,39.38
2019-05-15T10:29:31.699Z,37.00
2019-05-15T10:32:19.523Z,37.51
2019-05-15T10:35:24.004Z,37.75
2019-05-15T10:37:55.364Z,38.62
2019-05-15T10:40:58.621Z,38.53
2019-05-15T10:43:29.559Z,38.33
2019-05-15T10:46:15.859Z,36.87
2019-05-15T10:49:02.019Z,36.54
2019-05-15T10:51:48.458Z,37.82
2019-05-15T10:54:34.799Z,36.57
2019-05-15T10:57:20.819Z,36.46
2019-05-15T11:00:07.962Z,35.98
2019-05-15T11:02:54.278Z,37.01
2019-05-15T11:05:45.279Z,38.06
2019-05-15T11:08:28.993Z,38.12
2019-05-15T11:11:18.190Z,39.02
2019-05-15T11:14:04.031Z,38.18
2019-05-15T11:16:50.479Z,38.05
2019-05-15T11:19:40.457Z,37.79
2019-05-15T11:22:24.941Z,38.48
2019-05-15T11:25:11.220Z,40.65
2019-05-15T11:27:59.239Z,39.61
2019-05-15T11:30:48.572Z,40.07
2019-05-15T11:33:34.164Z,42.60
2019-05-15T11:36:20.720Z,40.17
2019-05-15T11:39:08.393Z,40.48
2019-05-15T11:41:55.042Z,40.43
2019-05-15T11:44:41.274Z,40.42
2019-05-15T11:47:27.984Z,41.31
2019-05-15T11:50:14.619Z,40.32
2019-05-15T11:53:01.179Z,40.76
2019-05-15T11:55:48.139Z,39.34
2019-05-15T11:58:34.738Z,40.40
2019-05-15T12:01:20.904Z,40.55
2019-05-15T12:04:09.312Z,39.95
2019-05-15T12:07:01.557Z,40.27
2019-05-15T12:09:43.545Z,39.60
2019-05-15T12:12:32.090Z,40.09
2019-05-15T12:15:19.176Z,39.81
2019-05-15T12:18:08.733Z,39.55
2019-05-15T12:20:54.579Z,39.21
2019-05-15T12:23:41.018Z,39.43
2019-05-15T12:26:29.898Z,39.47
2019-05-15T12:29:15.958Z,39.17
2019-05-15T12:32:21.811Z,39.17
2019-05-15T12:34:50.419Z,39.03
2019-05-15T12:37:39.767Z,38.89
2019-05-15T13:00:07.461Z,40.33
2019-05-15T13:02:54.368Z,38.96
2019-05-15T13:05:41.043Z,38.59
2019-05-15T13:08:29.049Z,38.35
2019-05-15T13:11:18.004Z,36.92
2019-05-15T13:14:04.798Z,36.40
2019-05-15T13:16:51.010Z,37.85
2019-05-15T13:19:38.770Z,37.96
2019-05-15T13:22:25.160Z,37.41
2019-05-15T13:25:12.202Z,36.91
2019-05-15T13:27:58.678Z,36.92
2019-05-15T13:30:44.921Z,37.53
2019-05-15T13:33:31.314Z,37.17
2019-05-15T13:36:19.871Z,37.43
2019-05-15T13:39:06.658Z,38.35
2019-05-15T13:41:53.060Z,39.10
2019-05-15T13:44:39.378Z,38.30
2019-05-15T13:47:25.439Z,38.35
2019-05-15T13:50:11.742Z,37.65
2019-05-15T13:52:58.963Z,37.77
2019-05-15T13:55:45.579Z,38.75
2019-05-15T13:58:31.523Z,37.82
2019-05-15T14:01:19.528Z,37.84
2019-05-15T14:04:08.372Z,37.54
2019-05-15T14:06:53.842Z,38.61
2019-05-15T14:09:44.360Z,39.20
2019-05-15T14:12:29.839Z,39.19
2019-05-15T14:15:16.360Z,38.71
2019-05-15T14:18:02.919Z,37.94
2019-05-15T14:20:49.559Z,38.73
2019-05-15T14:23:35.619Z,39.95
2019-05-15T14:26:23.750Z,40.17
2019-05-15T14:29:10.459Z,39.28
2019-05-15T14:31:58.474Z,40.09
2019-05-15T14:34:47.644Z,39.54
2019-05-15T14:37:33.239Z,40.09
2019-05-15T14:40:20.039Z,38.33
2019-05-15T14:43:08.942Z,36.81
2019-05-15T14:45:54.543Z,37.65
2019-05-15T14:48:41.119Z,39.57
2019-05-15T14:51:28.657Z,38.00
2019-05-15T14:54:18.287Z,38.18
2019-05-15T14:57:04.958Z,40.27
2019-05-15T14:59:53.639Z,39.04
2019-05-15T15:02:39.839Z,40.31
2019-05-15T15:05:25.783Z,39.00
2019-05-15T15:08:21.610Z,38.66
2019-05-15T15:11:01.304Z,38.78
2019-05-15T15:13:47.923Z,38.36
2019-05-15T15:16:34.250Z,39.25
2019-05-15T15:19:20.374Z,39.83
2019-05-15T15:22:08.617Z,40.22
2019-05-15T15:24:54.710Z,40.60
2019-05-15T15:27:40.949Z,42.30
2019-05-15T15:30:29.335Z,40.46
2019-05-15T15:33:15.396Z,42.50
2019-05-15T15:36:01.641Z,41.36
2019-05-15T15:38:48.417Z,41.44
2019-05-15T15:41:35.128Z,41.27
2019-05-15T15:44:21.457Z,41.00
2019-05-15T15:47:08.574Z,40.54
2019-05-15T15:49:55.531Z,40.41
2019-05-15T15:52:41.855Z,41.08
2019-05-15T15:55:28.989Z,41.40
2019-05-15T15:58:15.689Z,39.73
2019-05-15T16:01:01.943Z,40.29
2019-05-15T16:03:48.530Z,40.72
2019-05-15T16:06:34.732Z,39.93
2019-05-15T16:09:20.955Z,40.23
2019-05-15T16:12:09.307Z,40.69
2019-05-15T16:14:55.234Z,41.61
2019-05-15T16:17:41.555Z,40.88
2019-05-15T16:20:28.711Z,41.22
2019-05-15T16:23:15.263Z,40.94
2019-05-15T16:26:01.638Z,41.71
2019-05-15T16:28:48.947Z,41.55
2019-05-15T16:31:35.224Z,40.70
2019-05-15T16:34:21.523Z,41.03
2019-05-15T16:37:08.916Z,40.19
2019-05-15T16:39:57.805Z,40.95
2019-05-15T16:42:43.668Z,41.70
2019-05-15T16:45:29.824Z,40.56
2019-05-15T16:48:18.509Z,40.25
2019-05-15T16:51:04.054Z,40.39
2019-05-15T16:53:50.119Z,40.58
2019-05-15T16:56:37.400Z,41.69
2019-05-15T16:59:30.000Z,41.61
2019-05-15T17:02:15.040Z,41.92
2019-05-15T17:05:01.041Z,41.13
2019-05-15T17:07:48.826Z,41.34
2019-05-15T17:10:35.408Z,41.29
2019-05-15T17:13:21.262Z,40.53
2019-05-15T17:16:07.775Z,40.62
2019-05-15T17:18:54.284Z,40.53
2019-05-15T17:21:40.434Z,40.89
2019-05-15T17:24:26.559Z,41.02
2019-05-15T17:27:12.872Z,40.87
2019-05-15T17:29:59.039Z,42.01
2019-05-15T17:32:45.483Z,40.83
2019-05-15T17:35:31.518Z,40.85
2019-05-15T17:38:18.381Z,41.35
2019-05-15T17:41:04.439Z,40.87
2019-05-15T17:43:50.653Z,41.41
2019-05-15T17:46:38.496Z,41.63
2019-05-15T17:49:25.283Z,41.51
2019-05-15T17:52:11.249Z,42.00
2019-05-15T17:54:59.268Z,42.12
2019-05-15T17:57:53.798Z,42.02
2019-05-15T18:00:34.513Z,41.73
2019-05-15T18:03:20.544Z,41.29
2019-05-15T18:06:06.664Z,41.44
2019-05-15T18:08:53.484Z,41.24
2019-05-15T18:11:39.742Z,41.57
2019-05-15T18:14:25.909Z,40.97
2019-05-15T18:17:12.258Z,41.59
2019-05-15T18:19:58.726Z,41.82
2019-05-15T18:22:45.378Z,41.99
2019-05-15T18:25:31.639Z,41.80
2019-05-15T18:28:18.746Z,42.14
2019-05-15T18:31:05.139Z,42.34
2019-05-15T18:33:53.957Z,42.76
2019-05-15T18:36:39.410Z,42.77
2019-05-15T18:39:25.370Z,43.25
2019-05-15T18:42:11.569Z,43.35
2019-05-15T18:44:58.461Z,43.75
2019-05-15T18:47:45.111Z,43.99
2019-05-15T18:50:31.743Z,44.67
2019-05-15T18:53:18.633Z,44.77
2019-05-15T18:56:05.334Z,44.42
2019-05-15T18:58:51.814Z,44.81
2019-05-15T19:01:39.399Z,45.69
2019-05-15T19:04:28.716Z,44.90
2019-05-15T19:07:14.909Z,44.68
2019-05-15T19:10:01.716Z,44.74
2019-05-15T19:12:48.533Z,44.53
2019-05-15T19:15:37.796Z,45.44
2019-05-15T19:18:23.764Z,45.29
2019-05-15T19:21:09.818Z,45.39
2019-05-15T19:23:58.256Z,45.29
2019-05-15T19:26:44.048Z,45.32
2019-05-15T19:29:30.318Z,45.98
2019-05-15T19:32:17.755Z,46.83
2019-05-15T19:35:04.653Z,47.67
2019-05-15T19:37:50.865Z,48.45
2019-05-15T19:40:38.992Z,48.92
2019-05-15T19:43:25.472Z,48.77
2019-05-15T19:46:11.369Z,49.61
2019-05-15T19:48:58.128Z,49.71
2019-05-15T19:51:44.843Z,49.27
2019-05-15T19:54:31.009Z,47.79
2019-05-15T19:57:18.627Z,47.22
2019-05-15T20:00:08.314Z,47.36
2019-05-15T20:02:53.949Z,47.59
2019-05-15T20:05:40.224Z,46.75
2019-05-15T20:08:27.796Z,48.57
2019-05-15T20:11:14.214Z,49.28
2019-05-15T20:14:00.530Z,51.11
2019-05-15T20:16:48.101Z,50.05
2019-05-15T20:19:34.304Z,48.79
2019-05-15T20:22:20.400Z,46.78
2019-05-15T20:25:08.268Z,50.38
2019-05-15T20:27:55.865Z,49.60
2019-05-15T20:30:42.024Z,48.88
2019-05-15T20:33:28.686Z,49.13
2019-05-15T20:36:14.992Z,49.61
2019-05-15T20:39:01.093Z,49.16
2019-05-15T20:41:48.748Z,49.58
2019-05-15T20:44:35.196Z,49.36
2019-05-15T20:47:21.371Z,49.55
2019-05-15T20:50:08.518Z,49.13
2019-05-15T20:52:54.873Z,49.26
2019-05-15T20:55:41.019Z,49.65
2019-05-15T20:58:27.289Z,49.66
2019-05-15T21:01:18.060Z,49.17
2019-05-15T21:04:16.892Z,49.50
2019-05-15T21:06:52.636Z,49.68
2019-05-15T21:09:39.481Z,49.68
2019-05-15T21:12:27.162Z,49.97
2019-05-15T21:15:14.108Z,50.33
2019-05-15T21:18:13.677Z,50.68
2019-05-15T21:20:48.511Z,51.56
2019-05-15T21:23:34.501Z,52.16
2019-05-15T21:26:20.588Z,52.27
2019-05-15T21:29:07.919Z,52.49
2019-05-15T21:31:53.988Z,52.88
2019-05-15T21:34:44.011Z,52.90
2019-05-15T21:37:30.430Z,53.91
2019-05-15T21:40:17.611Z,53.44
2019-05-15T21:43:04.128Z,54.03
2019-05-15T21:45:50.389Z,53.72
2019-05-15T21:48:38.249Z,54.39
2019-05-15T21:51:24.763Z,54.15
2019-05-15T21:54:10.948Z,54.02
2019-05-15T21:57:12.893Z,54.19
2019-05-15T21:59:45.193Z,53.93
2019-05-15T22:02:31.364Z,55.25
2019-05-15T22:05:19.067Z,55.47
2019-05-15T22:08:05.229Z,55.01
2019-05-15T22:10:51.774Z,55.03
2019-05-15T22:13:39.394Z,54.30
2019-05-15T22:16:25.803Z,53.67
2019-05-15T22:19:13.153Z,53.02
2019-05-15T22:21:59.299Z,52.99
2019-05-15T22:24:45.348Z,53.53
2019-05-15T22:27:31.463Z,53.50
2019-05-15T22:30:19.056Z,51.98
2019-05-15T22:33:05.473Z,50.58
2019-05-15T22:35:51.663Z,50.50
2019-05-15T22:38:37.894Z,50.85
2019-05-15T22:41:24.154Z,50.97
2019-05-15T22:44:10.397Z,50.97
2019-05-15T22:46:58.142Z,49.75
2019-05-15T22:49:44.389Z,49.73
2019-05-15T22:52:30.869Z,49.44
2019-05-15T22:55:18.281Z,49.81
2019-05-15T22:58:04.804Z,50.11
2019-05-15T23:00:51.018Z,50.29
2019-05-15T23:03:39.347Z,50.80
2019-05-15T23:06:25.284Z,49.92
2019-05-15T23:09:11.447Z,51.13
2019-05-15T23:11:58.863Z,50.06
2019-05-15T23:14:44.839Z,50.17
2019-05-15T23:17:31.079Z,50.52
2019-05-15T23:20:17.791Z,50.54
2019-05-15T23:23:03.949Z,50.48
2019-05-15T23:25:50.239Z,50.22
2019-05-15T23:28:38.509Z,50.11
2019-05-15T23:31:24.439Z,49.01
2019-05-15T23:34:10.679Z,49.33
2019-05-15T23:36:57.703Z,49.31
2019-05-15T23:39:43.978Z,49.51
2019-05-15T23:42:30.114Z,49.10
2019-05-15T23:45:18.191Z,49.31
2019-05-15T23:48:04.328Z,49.89
2019-05-15T23:50:50.438Z,50.30
2019-05-15T23:53:36.674Z,50.26
2019-05-15T23:56:22.893Z,50.77
2019-05-15T23:59:09.105Z,51.24
